Map

Track Data

SID SEASON NUMBER BASIN SUBBASIN NAME ISO_TIME NATURE LAT LON WMO_WIND WMO_PRES WMO_AGENCY TRACK_TYPE DIST2LAND LANDFALL IFLAG USA_AGENCY USA_ATCF_ID USA_LAT USA_LON USA_RECORD USA_STATUS USA_WIND USA_PRES USA_SSHS USA_R34_NE USA_R34_SE USA_R34_SW USA_R34_NW USA_R50_NE USA_R50_SE USA_R50_SW USA_R50_NW USA_R64_NE USA_R64_SE USA_R64_SW USA_R64_NW USA_POCI USA_ROCI USA_RMW USA_EYE TOKYO_LAT TOKYO_LON TOKYO_GRADE TOKYO_WIND TOKYO_PRES TOKYO_R50_DIR TOKYO_R50_LONG TOKYO_R50_SHORT TOKYO_R30_DIR TOKYO_R30_LONG TOKYO_R30_SHORT TOKYO_LAND CMA_LAT CMA_LON CMA_CAT CMA_WIND CMA_PRES HKO_LAT HKO_LON HKO_CAT HKO_WIND HKO_PRES NEWDELHI_LAT NEWDELHI_LON NEWDELHI_GRADE NEWDELHI_WIND NEWDELHI_PRES NEWDELHI_CI NEWDELHI_DP NEWDELHI_POCI REUNION_LAT REUNION_LON REUNION_TYPE REUNION_WIND REUNION_PRES REUNION_TNUM REUNION_CI REUNION_RMW REUNION_R34_NE REUNION_R34_SE REUNION_R34_SW REUNION_R34_NW REUNION_R50_NE REUNION_R50_SE REUNION_R50_SW REUNION_R50_NW REUNION_R64_NE REUNION_R64_SE REUNION_R64_SW REUNION_R64_NW BOM_LAT BOM_LON BOM_TYPE BOM_WIND BOM_PRES BOM_TNUM BOM_CI BOM_RMW BOM_R34_NE BOM_R34_SE BOM_R34_SW BOM_R34_NW BOM_R50_NE BOM_R50_SE BOM_R50_SW BOM_R50_NW BOM_R64_NE BOM_R64_SE BOM_R64_SW BOM_R64_NW BOM_ROCI BOM_POCI BOM_EYE BOM_POS_METHOD BOM_PRES_METHOD NADI_LAT NADI_LON NADI_CAT NADI_WIND NADI_PRES WELLINGTON_LAT WELLINGTON_LON WELLINGTON_WIND WELLINGTON_PRES DS824_LAT DS824_LON DS824_STAGE DS824_WIND DS824_PRES TD9636_LAT TD9636_LON TD9636_STAGE TD9636_WIND TD9636_PRES TD9635_LAT TD9635_LON TD9635_WIND TD9635_PRES TD9635_ROCI NEUMANN_LAT NEUMANN_LON NEUMANN_CLASS NEUMANN_WIND NEUMANN_PRES MLC_LAT MLC_LON MLC_CLASS MLC_WIND MLC_PRES USA_GUST BOM_GUST BOM_GUST_PER REUNION_GUST REUNION_GUST_PER USA_SEAHGT USA_SEARAD_NE USA_SEARAD_SE USA_SEARAD_SW USA_SEARAD_NW STORM_SPEED STORM_DIR
1892279N11305 1892 50 NA NA NOT_NAMED 1892-10-05 00:00:00 TS 10.6667 -54.9000 35 hurdat_atl main 537 506 O____________O hurdat_atl AL071892 11.5000 -56.2000 TS 35 0 9.00000 -52.3000 TD 30 7 267
1892279N11305 1892 50 NA NA NOT_NAMED 1892-10-05 03:00:00 TS 10.6491 -55.2717 main 499 464 P____________P AL071892 11.3927 -56.6201 TS 37 0 9.16204 -52.5750 TD 30 8 268
1892279N11305 1892 50 NA NA NOT_NAMED 1892-10-05 06:00:00 TS 10.6333 -55.7000 40 hurdat_atl main 464 423 O____________O hurdat_atl AL071892 11.3000 -57.0000 TS 40 0 9.30000 -53.1000 TD 30 9 268
1892279N11305 1892 50 NA NA NOT_NAMED 1892-10-05 09:00:00 TS 10.6235 -56.2100 main 423 385 P____________P AL071892 11.2349 -57.3150 TS 42 0 9.40070 -54.0000 TD 32 10 270
1892279N11305 1892 50 NA NA NOT_NAMED 1892-10-05 12:00:00 TS 10.6333 -56.7000 45 hurdat_atl main 385 371 O____________O hurdat_atl AL071892 11.2000 -57.6000 TS 45 0 9.50000 -54.9000 TS 35 8 274
1892279N11305 1892 50 NA NA NOT_NAMED 1892-10-05 15:00:00 TS 10.6782 -57.0633 main 367 349 P____________P AL071892 11.1925 -57.9075 TS 47 0 9.64958 -55.3750 TS 37 7 279
1892279N11305 1892 50 NA NA NOT_NAMED 1892-10-05 18:00:00 TS 10.7333 -57.3667 50 hurdat_atl main 349 344 O____________O hurdat_atl AL071892 11.2000 -58.2000 TS 50 0 9.80000 -55.7000 TS 40 6 279
1892279N11305 1892 50 NA NA NOT_NAMED 1892-10-05 21:00:00 TS 10.7716 -57.6717 main 344 328 P____________P AL071892 11.2075 -58.4575 TS 52 0 9.89995 -56.1001 TS 42 6 276
1892279N11305 1892 50 NA NA NOT_NAMED 1892-10-06 00:00:00 TS 10.8000 -57.9667 55 hurdat_atl main 328 306 O____________O hurdat_atl AL071892 11.2000 -58.7000 TS 55 0 10.0000 -56.5000 TS 45 5 275
1892279N11305 1892 50 NA NA NOT_NAMED 1892-10-06 03:00:00 TS 10.8165 -58.2267 main 306 273 P____________P AL071892 11.1499 -58.9275 TS 55 0 10.1496 -56.8251 TS 50 6 273
1892279N11305 1892 50 NA NA NOT_NAMED 1892-10-06 06:00:00 TS 10.8333 -58.5667 55 hurdat_atl main 262 208 O____________O hurdat_atl AL071892 11.1000 -59.2000 TS 55 0 10.3000 -57.3000 TS 55 8 273
1892279N11305 1892 50 NA NA NOT_NAMED 1892-10-06 09:00:00 TS 10.8617 -59.0884 main 208 143 P____________P AL071892 11.0925 -59.5700 TS 57 0 10.4003 -58.1251 TS 57 11 273
1892279N11305 1892 50 NA NA NOT_NAMED 1892-10-06 12:00:00 TS 10.9000 -59.7000 60 hurdat_atl main 143 79 O____________O hurdat_atl AL071892 11.1000 -60.0000 TS 60 0 10.5000 -59.1000 TS 60 12 274
1892279N11305 1892 50 NA NA NOT_NAMED 1892-10-06 15:00:00 TS 10.9498 -60.2850 main 79 35 P____________P AL071892 11.0999 -60.4275 TS 62 0 10.6497 -60.0000 TS 62 12 275
1892279N11305 1892 50 NA CS NOT_NAMED 1892-10-06 18:00:00 TS 11.0000 -60.9000 65 hurdat_atl main 35 33 O____________O hurdat_atl AL071892 11.1000 -60.9000 HU 65 1 10.8000 -60.9000 HU 65 12 274
1892279N11305 1892 50 NA CS NOT_NAMED 1892-10-06 21:00:00 TS 11.0282 -61.5518 main 33 33 P____________P AL071892 11.0924 -61.4276 HU 67 1 10.8997 -61.8002 HU 67 13 273
1892279N11305 1892 50 NA CS NOT_NAMED 1892-10-07 00:00:00 TS 11.0667 -62.2333 70 hurdat_atl main 44 44 O____________O hurdat_atl AL071892 11.1000 -62.0000 HU 70 1 11.0000 -62.7000 HU 70 14 275
1892279N11305 1892 50 NA CS NOT_NAMED 1892-10-07 03:00:00 TS 11.1449 -62.9308 main 44 44 P____________P AL071892 11.1424 -62.5925 HU 72 1 11.1498 -63.6074 HU 72 14 277
1892279N11305 1892 50 NA CS NOT_NAMED 1892-10-07 06:00:00 TS 11.2333 -63.6333 75 hurdat_atl main 67 67 O____________O hurdat_atl AL071892 11.2000 -63.2000 HU 75 1 11.3000 -64.5000 HU 75 14 276
1892279N11305 1892 50 NA CS NOT_NAMED 1892-10-07 09:00:00 TS 11.2948 -64.3118 main 79 79 P____________P AL071892 11.2423 -63.7926 HU 77 1 11.3996 -65.3502 HU 77 13 276
1892279N11305 1892 50 NA CS NOT_NAMED 1892-10-07 12:00:00 TS 11.3667 -65.0000 80 hurdat_atl main 125 104 O____________O hurdat_atl AL071892 11.3000 -64.4000 HU 80 1 11.5000 -66.2000 HU 80 14 278
1892279N11305 1892 50 NA CS NOT_NAMED 1892-10-07 15:00:00 TS 11.4832 -65.7258 main 105 100 P____________P AL071892 11.3999 -65.0424 HU 80 1 11.6498 -67.0924 HU 80 15 279
1892279N11305 1892 50 NA CS NOT_NAMED 1892-10-07 18:00:00 TS 11.6000 -66.4667 80 hurdat_atl main 111 111 O____________O hurdat_atl AL071892 11.5000 -65.7000 HU 80 1 11.8000 -68.0000 HU 80 15 277
1892279N11305 1892 50 NA CS NOT_NAMED 1892-10-07 21:00:00 TS 11.6690 -67.2001 main 125 78 P____________P AL071892 11.5499 -66.3501 HU 82 1 11.9072 -68.9001 HU 82 14 275
1892279N11305 1892 50 NA CS NOT_NAMED 1892-10-08 00:00:00 TS 11.7333 -67.9333 85 hurdat_atl main 78 49 O____________O hurdat_atl AL071892 11.6000 -67.0000 HU 85 2 12.0000 -69.8000 HU 85 15 276
1892279N11305 1892 50 NA CS NOT_NAMED 1892-10-08 03:00:00 TS 11.8283 -68.6891 main 46 43 P____________P AL071892 11.6924 -67.6500 HU 85 2 12.1002 -70.7674 HU 85 15 278
1892279N11305 1892 50 NA CS NOT_NAMED 1892-10-08 06:00:00 TS 11.9333 -69.4000 85 hurdat_atl main 43 0 O____________O hurdat_atl AL071892 11.8000 -68.3000 HU 85 2 12.2000 -71.6000 HU 85 13 279
1892279N11305 1892 50 NA NA NOT_NAMED 1892-10-08 09:00:00 TS 12.0306 -70.0084 main 0 0 P____________P AL071892 11.8999 -68.9575 HU 85 2 12.2919 -72.1101 HU 85 12 280
1892279N11305 1892 50 NA CS NOT_NAMED 1892-10-08 12:00:00 TS 12.1333 -70.5667 85 hurdat_atl main 39 10 O____________O hurdat_atl AL071892 12.0000 -69.6000 HU 85 2 12.4000 -72.5000 HU 85 11 281
1892279N11305 1892 50 NA CS NOT_NAMED 1892-10-08 15:00:00 TS 12.2499 -71.1384 main 10 0 P____________P AL071892 12.0998 -70.2076 HU 85 2 12.5500 -73.0000 HU 85 11 282
1892279N11305 1892 50 NA CS NOT_NAMED 1892-10-08 18:00:00 TS 12.3667 -71.7000 85 hurdat_atl main 0 0 O____________O hurdat_atl AL071892 12.2000 -70.8000 HU 85 2 12.7000 -73.5000 HU 85 11 281
1892279N11305 1892 50 NA CS NOT_NAMED 1892-10-08 21:00:00 TS 12.4716 -72.2550 main 35 35 P____________P AL071892 12.3074 -71.4075 HU 85 2 12.7998 -73.9501 HU 85 11 281
1892279N11305 1892 50 NA CS NOT_NAMED 1892-10-09 00:00:00 TS 12.5667 -72.8000 85 hurdat_atl main 79 79 O____________O hurdat_atl AL071892 12.4000 -72.0000 HU 85 2 12.9000 -74.4000 HU 85 11 280
1892279N11305 1892 50 NA CS NOT_NAMED 1892-10-09 03:00:00 TS 12.6499 -73.3334 main 114 114 P____________P AL071892 12.4498 -72.5501 HU 85 2 13.0500 -74.8999 HU 85 11 279
1892279N11305 1892 50 NA CS NOT_NAMED 1892-10-09 06:00:00 TS 12.7333 -73.8667 85 hurdat_atl main 163 163 O____________O hurdat_atl AL071892 12.5000 -73.1000 HU 85 2 13.2000 -75.4000 HU 85 11 280
1892279N11305 1892 50 NA CS NOT_NAMED 1892-10-09 09:00:00 TS 12.8282 -74.4092 main 180 180 P____________P AL071892 12.5924 -73.6850 HU 85 2 13.2999 -75.8576 HU 87 11 281
1892279N11305 1892 50 NA CS NOT_NAMED 1892-10-09 12:00:00 TS 12.9333 -74.9667 85 hurdat_atl main 209 209 O____________O hurdat_atl AL071892 12.7000 -74.3000 HU 85 2 13.4000 -76.3000 HU 90 11 281
1892279N11305 1892 50 NA CS NOT_NAMED 1892-10-09 15:00:00 TS 13.0499 -75.5450 main 233 233 P____________P AL071892 12.7999 -74.9425 HU 85 2 13.5499 -76.7500 HU 90 12 282
1892279N11305 1892 50 NA CS NOT_NAMED 1892-10-09 18:00:00 TS 13.1667 -76.1333 85 hurdat_atl main 278 278 O____________O hurdat_atl AL071892 12.9000 -75.6000 HU 85 2 13.7000 -77.2000 HU 90 12 281
1892279N11305 1892 50 NA CS NOT_NAMED 1892-10-09 21:00:00 TS 13.2615 -76.7118 main 318 318 P____________P AL071892 12.9923 -76.2426 HU 85 2 13.7999 -77.6501 HU 90 12 280
1892279N11305 1892 50 NA CS NOT_NAMED 1892-10-10 00:00:00 TS 13.3667 -77.3000 85 hurdat_atl main 363 363 O____________O hurdat_atl AL071892 13.1000 -76.9000 HU 85 2 13.9000 -78.1000 HU 90 12 282
1892279N11305 1892 50 NA CS NOT_NAMED 1892-10-10 03:00:00 TS 13.5116 -77.9216 main 413 413 P____________P AL071892 13.2425 -77.6075 HU 85 2 14.0499 -78.5500 HU 90 12 284
1892279N11305 1892 50 NA CS NOT_NAMED 1892-10-10 06:00:00 TS 13.6667 -78.5333 85 hurdat_atl main 468 446 O____________O hurdat_atl AL071892 13.4000 -78.3000 HU 85 2 14.2000 -79.0000 HU 90 12 284
1892279N11305 1892 50 NA CS NOT_NAMED 1892-10-10 09:00:00 TS 13.8024 -79.1009 main 446 391 P____________P AL071892 13.5498 -78.9301 HU 85 2 14.3074 -79.4426 HU 87 11 284
1892279N11305 1892 50 NA CS NOT_NAMED 1892-10-10 12:00:00 TS 13.9333 -79.6333 85 hurdat_atl main 391 335 O____________O hurdat_atl AL071892 13.7000 -79.5000 HU 85 2 14.4000 -79.9000 HU 85 11 285
1892279N11305 1892 50 NA CS NOT_NAMED 1892-10-10 15:00:00 TS 14.0666 -80.1509 main 324 280 P____________P AL071892 13.8499 -80.0301 HU 85 2 14.4999 -80.3925 HU 85 10 285
1892279N11305 1892 50 NA CS NOT_NAMED 1892-10-10 18:00:00 TS 14.2000 -80.6333 85 hurdat_atl main 280 226 O____________O hurdat_atl AL071892 14.0000 -80.5000 HU 85 2 14.6000 -80.9000 HU 85 9 287
1892279N11305 1892 50 NA CS NOT_NAMED 1892-10-10 21:00:00 TS 14.3332 -81.0792 main 226 180 P____________P AL071892 14.1499 -80.9151 HU 85 2 14.6999 -81.4075 HU 85 9 288
1892279N11305 1892 50 NA CS NOT_NAMED 1892-10-11 00:00:00 TS 14.4667 -81.5000 85 hurdat_atl main 180 136 O____________O hurdat_atl AL071892 14.3000 -81.3000 HU 85 2 14.8000 -81.9000 HU 85 990 8 288
1892279N11305 1892 50 NA CS NOT_NAMED 1892-10-11 03:00:00 TS 14.5899 -81.9143 main 136 92 P____________P AL071892 14.4424 -81.6926 HU 85 2 14.8849 -82.3577 HU 85 9 288
1892279N11305 1892 50 NA CS NOT_NAMED 1892-10-11 06:00:00 TS 14.7333 -82.3333 85 hurdat_atl main 92 44 O____________O hurdat_atl AL071892 14.6000 -82.1000 HU 85 2 15.0000 -82.8000 HU 85 9 292
1892279N11305 1892 50 NA CS NOT_NAMED 1892-10-11 09:00:00 TS 14.9207 -82.7684 main 34 10 P____________P AL071892 14.7849 -82.5276 HU 85 2 15.1924 -83.2499 HU 85 10 295
1892279N11305 1892 50 NA CS NOT_NAMED 1892-10-11 12:00:00 TS 15.1333 -83.2333 85 hurdat_atl main 10 0 O____________O hurdat_atl AL071892 15.0000 -83.0000 HU 85 2 15.4000 -83.7000 HU 85 10 294
1892279N11305 1892 50 NA CS NOT_NAMED 1892-10-11 15:00:00 TS 15.3500 -83.7450 main 10 0 P____________P AL071892 15.2500 -83.5424 HU 82 1 15.5499 -84.1502 HU 82 11 294
1892279N11305 1892 50 NA CS NOT_NAMED 1892-10-11 18:00:00 TS 15.5667 -84.2667 80 hurdat_atl main 0 0 O____________O hurdat_atl AL071892 15.5000 -84.1000 HU 80 1 15.7000 -84.6000 HU 80 11 293
1892279N11305 1892 50 NA NA NOT_NAMED 1892-10-11 21:00:00 TS 15.7665 -84.7502 main 0 0 P____________P AL071892 15.6998 -84.6003 HU 77 1 15.8999 -85.0500 HU 77 10 293
1892279N11305 1892 50 NA CS NOT_NAMED 1892-10-12 00:00:00 TS 15.9667 -85.2333 75 hurdat_atl main 11 11 O____________O hurdat_atl AL071892 15.9000 -85.1000 HU 75 1 16.1000 -85.5000 HU 75 10 293
1892279N11305 1892 50 NA CS NOT_NAMED 1892-10-12 03:00:00 TS 16.1833 -85.7500 main 33 33 P____________P AL071892 16.1425 -85.6500 HU 77 1 16.2649 -85.9501 HU 77 11 294
1892279N11305 1892 50 NA CS NOT_NAMED 1892-10-12 06:00:00 TS 16.4000 -86.2667 80 hurdat_atl main 67 67 O____________O hurdat_atl AL071892 16.4000 -86.2000 HU 80 1 16.4000 -86.4000 HU 80 10 294
1892279N11305 1892 50 NA CS NOT_NAMED 1892-10-12 09:00:00 TS 16.6023 -86.7502 main 90 89 P____________P AL071892 16.6498 -86.7002 HU 82 1 16.5074 -86.8501 HU 82 10 293
1892279N11305 1892 50 NA CS NOT_NAMED 1892-10-12 12:00:00 TS 16.8000 -87.2333 85 hurdat_atl main 108 53 O____________O hurdat_atl AL071892 16.9000 -87.2000 HU 85 2 16.6000 -87.3000 HU 85 10 292
1892279N11305 1892 50 NA CS NOT_NAMED 1892-10-12 15:00:00 TS 16.9974 -87.7501 main 42 10 P____________P AL071892 17.1500 -87.7501 HU 85 2 16.6924 -87.7501 HU 85 11 292
1892279N11305 1892 50 NA CS NOT_NAMED 1892-10-12 18:00:00 TS 17.2000 -88.2667 85 hurdat_atl main 0 0 O____________O hurdat_atl AL071892 17.4000 -88.3000 HU 85 2 16.8000 -88.2000 HU 85 10 294
1892279N11305 1892 50 NA NA NOT_NAMED 1892-10-12 21:00:00 TS 17.4215 -88.7501 main 0 0 P____________P AL071892 17.6573 -88.8001 HU 72 1 16.9499 -88.6500 HU 72 10 295
1892279N11305 1892 50 NA NA NOT_NAMED 1892-10-13 00:00:00 TS 17.6333 -89.2333 60 hurdat_atl main 0 0 O____________O hurdat_atl AL071892 17.9000 -89.3000 TS 60 0 17.1000 -89.1000 TS 60 10 292
1892279N11305 1892 50 NA NA NOT_NAMED 1892-10-13 03:00:00 TS 17.8074 -89.7501 main 0 0 P____________P AL071892 18.1075 -89.8501 TS 57 0 17.2074 -89.5501 TS 57 10 289
1892279N11305 1892 50 NA NA NOT_NAMED 1892-10-13 06:00:00 TS 17.9667 -90.2667 55 hurdat_atl main 0 0 O____________O hurdat_atl AL071892 18.3000 -90.4000 TS 55 0 17.3000 -90.0000 TS 55 10 289
1892279N11305 1892 50 NA NA NOT_NAMED 1892-10-13 09:00:00 TS 18.1357 -90.7601 main 0 0 P____________P AL071892 18.5074 -90.9151 TS 55 0 17.3924 -90.4501 TS 52 10 290
1892279N11305 1892 50 NA NA NOT_NAMED 1892-10-13 12:00:00 TS 18.3000 -91.2333 55 hurdat_atl main 0 0 O____________O hurdat_atl AL071892 18.7000 -91.4000 TS 55 0 17.5000 -90.9000 TS 50 9 290
1892279N11305 1892 50 NA GM NOT_NAMED 1892-10-13 15:00:00 TS 18.4549 -91.6984 main 11 0 P____________P AL071892 18.8574 -91.8726 TS 60 0 17.6499 -91.3500 TS 47 9 289
1892279N11305 1892 50 NA NA NOT_NAMED 1892-10-13 18:00:00 TS 18.6000 -92.1333 65 hurdat_atl main 0 0 O____________O hurdat_atl AL071892 19.0000 -92.3000 HU 65 1 17.8000 -91.8000 TS 45 8 290
1892279N11305 1892 50 NA GM NOT_NAMED 1892-10-13 21:00:00 TS 18.7407 -92.5367 main 11 11 P____________P AL071892 19.1574 -92.6800 HU 67 1 17.9074 -92.2501 TS 45 8 290
1892279N11305 1892 50 NA GM NOT_NAMED 1892-10-14 00:00:00 TS 18.8667 -92.9000 70 hurdat_atl main 39 39 O____________O hurdat_atl AL071892 19.3000 -93.0000 HU 70 1 18.0000 -92.7000 TS 45 7 289
1892279N11305 1892 50 NA GM NOT_NAMED 1892-10-14 03:00:00 TS 18.9665 -93.2218 main 69 69 P____________P AL071892 19.3999 -93.2577 HU 72 1 18.0999 -93.1501 TS 45 6 288
1892279N11305 1892 50 NA GM NOT_NAMED 1892-10-14 06:00:00 TS 19.0667 -93.5333 75 hurdat_atl main 89 89 O____________O hurdat_atl AL071892 19.5000 -93.5000 HU 75 1 18.2000 -93.6000 TS 45 7 291
1892279N11305 1892 50 NA GM NOT_NAMED 1892-10-14 09:00:00 TS 19.2000 -93.8783 main 100 100 P____________P AL071892 19.6500 -93.7925 HU 77 1 18.2999 -94.0501 TS 47 7 292
1892279N11305 1892 50 NA GM NOT_NAMED 1892-10-14 12:00:00 TS 19.3333 -94.2333 80 hurdat_atl main 114 98 O____________O hurdat_atl AL071892 19.8000 -94.1000 HU 80 1 18.4000 -94.5000 TS 50 7 289
1892279N11305 1892 50 NA GM NOT_NAMED 1892-10-14 15:00:00 TS 19.4332 -94.5785 main 98 94 P____________P AL071892 19.8999 -94.3926 HU 82 1 18.4999 -94.9501 TS 52 7 287
1892279N11305 1892 50 NA GM NOT_NAMED 1892-10-14 18:00:00 TS 19.5333 -94.9333 85 hurdat_atl main 94 91 O____________O hurdat_atl AL071892 20.0000 -94.7000 HU 85 2 18.6000 -95.4000 TS 55 7 288
1892279N11305 1892 50 NA GM NOT_NAMED 1892-10-14 21:00:00 TS 19.6616 -95.3167 main 100 73 P____________P AL071892 20.1425 -95.0500 HU 85 2 18.6999 -95.8501 TS 57 8 290
1892279N11305 1892 50 NA GM NOT_NAMED 1892-10-15 00:00:00 TS 19.8000 -95.7000 85 hurdat_atl main 73 41 O____________O hurdat_atl AL071892 20.3000 -95.4000 HU 85 2 18.8000 -96.3000 TS 60 7 291
1892279N11305 1892 50 NA GM NOT_NAMED 1892-10-15 03:00:00 TS 19.9332 -96.0551 main 31 15 P____________P AL071892 20.4499 -95.7076 HU 85 2 18.8999 -96.7501 TS 52 7 292
1892279N11305 1892 50 NA GM NOT_NAMED 1892-10-15 06:00:00 TS 20.0667 -96.4000 85 hurdat_atl main 15 0 O____________O hurdat_atl AL071892 20.6000 -96.0000 HU 85 2 19.0000 -97.2000 TS 45 7 291
1892279N11305 1892 50 NA NA NOT_NAMED 1892-10-15 09:00:00 TS 20.1975 -96.7875 main 0 0 P____________P AL071892 20.7424 -96.2926 HU 82 1 19.1077 -97.7773 TS 40 7 292
1892279N11305 1892 50 NA NA NOT_NAMED 1892-10-15 12:00:00 TS 20.3333 -97.1000 80 hurdat_atl main 0 0 O____________O hurdat_atl AL071892 20.9000 -96.6000 HU 80 1 19.2000 -98.1000 TS 35 5 305
1892279N11305 1892 50 NA NA NOT_NAMED 1892-10-15 15:00:00 TS 20.4735 -97.2001 main 0 0 P____________P AL071892 21.0925 -96.9425 HU 75 1 19.2354 -97.7153 TS 32 4 329
1892279N11305 1892 50 NA NA NOT_NAMED 1892-10-15 18:00:00 TS 20.6333 -97.3000 70 hurdat_atl main 0 0 O____________O hurdat_atl AL071892 21.3000 -97.3000 HU 70 1 19.3000 -97.3000 TD 30 5 314
1892279N11305 1892 50 NA NA NOT_NAMED 1892-10-15 21:00:00 TS 20.8243 -97.5872 main 0 0 P____________P AL071892 21.5026 -97.6524 HU 52 0 19.4677 -97.4569 TD 30 8 301
1892279N11305 1892 50 NA NA NOT_NAMED 1892-10-16 00:00:00 TS 21.0333 -98.0000 35 hurdat_atl main 0 O____________O hurdat_atl AL071892 21.7000 -98.0000 TS 35 0 19.7000 -98.0000 TD 30 9 298

About IBTrACS Database

This database is a web-friendly format of International Best Track Archive for Climate Stewardship (IBTrACS), a global best track data archive curated by NOAA dating back to 1842.

Updated: 2021-10-19